Time;durP1;ratioP1;P1;durP2;ratioP2;P2;SDS_P1;SDS_P2;PMS_P1;PMS_P2;Temp;Humidity;BMP_temperature;BMP_pressure;BME280_temperature;BME280_humidity;BME280_pressure;Samples;Min_cycle;Max_cycle;Signal;HPM_P1;HPM_P2
2022/04/28 00:00:19;;;;;;;12.13;5.10;;;;;;;16.19;63.12;100745.22;5058855;28;20078;-75
2022/04/28 00:02:49;;;;;;;12.93;5.45;;;;;;;16.47;63.08;100804.38;5074653;28;20048;-76
2022/04/28 00:05:16;;;;;;;11.13;4.68;;;;;;;16.39;63.00;100796.69;5071569;28;20056;-76
2022/04/28 00:07:44;;;;;;;10.73;4.57;;;;;;;16.42;63.11;100805.34;5073980;28;20045;-74
2022/04/28 00:10:11;;;;;;;18.15;5.18;;;;;;;16.40;63.19;100810.44;5074586;28;20052;-75
2022/04/28 00:12:39;;;;;;;17.10;4.68;;;;;;;16.29;63.28;100792.91;5069869;28;20566;-75
2022/04/28 00:15:07;;;;;;;12.02;4.65;;;;;;;15.97;63.62;100745.13;5072715;28;20134;-76
2022/04/28 00:17:33;;;;;;;13.85;5.15;;;;;;;16.30;63.56;100794.56;5067282;28;20140;-72
2022/04/28 00:20:01;;;;;;;13.88;5.22;;;;;;;16.33;63.39;100793.94;5068967;28;20068;-75
2022/04/28 00:22:28;;;;;;;11.32;4.88;;;;;;;16.24;63.54;100778.94;5076637;28;20053;-76
2022/04/28 00:24:55;;;;;;;12.75;5.30;;;;;;;16.35;63.63;100786.03;5073097;28;20049;-77
2022/04/28 00:27:22;;;;;;;11.82;3.92;;;;;;;16.40;63.35;100798.34;5061418;28;20053;-72
2022/04/28 00:29:49;;;;;;;14.32;4.45;;;;;;;16.32;63.52;100775.38;5081109;28;20097;-72
2022/04/28 00:32:16;;;;;;;13.13;4.68;;;;;;;16.33;63.21;100776.22;5081745;28;20076;-74
2022/04/28 00:34:43;;;;;;;17.60;6.13;;;;;;;16.26;63.25;100779.44;5069224;28;20091;-74
2022/04/28 00:37:10;;;;;;;13.52;6.18;;;;;;;16.23;62.77;100770.78;5057342;28;20056;-74
2022/04/28 00:39:38;;;;;;;13.30;4.72;;;;;;;16.24;63.41;100787.41;5076550;28;20045;-74
2022/04/28 00:42:13;;;;;;;12.02;4.90;;;;;;;16.16;63.11;100770.38;5070490;28;20094;-71
2022/04/28 00:44:40;;;;;;;17.08;4.40;;;;;;;16.08;63.31;100761.50;5069213;28;20068;-75
2022/04/28 00:47:09;;;;;;;15.50;5.15;;;;;;;15.85;63.07;100725.91;5068027;28;20132;-76
2022/04/28 00:52:23;;;;;;;11.93;4.65;;;;;;;15.82;63.11;100733.00;5083618;28;20064;-75
2022/04/28 00:54:54;;;;;;;12.98;4.43;;;;;;;16.12;63.24;100775.81;5093619;28;20106;-75
2022/04/28 00:57:22;;;;;;;13.20;4.60;;;;;;;15.82;63.38;100721.72;5092043;28;20456;-73
2022/04/28 00:59:50;;;;;;;14.57;4.30;;;;;;;16.13;63.39;100771.81;5066592;28;20098;-75
2022/04/28 01:02:18;;;;;;;10.43;4.50;;;;;;;15.52;63.19;100680.94;5068675;28;20490;-76
2022/04/28 01:04:47;;;;;;;14.67;4.60;;;;;;;15.95;63.39;100741.78;5068564;28;20132;-75
2022/04/28 01:07:15;;;;;;;9.73;5.70;;;;;;;15.95;63.27;100751.06;5070884;28;20125;-75
2022/04/28 01:09:42;;;;;;;10.80;3.80;;;;;;;16.06;63.50;100771.41;5072757;28;20071;-75
2022/04/28 01:12:14;;;;;;;11.85;4.30;;;;;;;16.04;63.29;100759.63;5072958;28;20098;-75
2022/04/28 01:14:43;;;;;;;14.40;5.80;;;;;;;15.99;63.36;100759.72;5068387;28;20090;-73
2022/04/28 01:17:10;;;;;;;14.75;4.00;;;;;;;15.71;63.41;100717.47;5063562;28;20076;-74
2022/04/28 01:19:38;;;;;;;7.13;4.13;;;;;;;15.83;63.36;100740.31;5068499;28;20079;-74
2022/04/28 01:22:05;;;;;;;18.35;5.43;;;;;;;16.01;63.49;100771.53;5075966;28;20122;-74
2022/04/28 01:24:32;;;;;;;12.77;4.70;;;;;;;15.96;63.31;100772.44;5068184;28;20479;-73
2022/04/28 01:27:02;;;;;;;12.13;4.30;;;;;;;15.94;63.29;100768.28;5064711;28;20127;-72
2022/04/28 01:29:33;;;;;;;10.03;4.47;;;;;;;15.89;63.28;100760.75;5067178;28;20103;-73
2022/04/28 01:32:01;;;;;;;15.83;4.93;;;;;;;15.95;63.44;100781.22;5069346;28;20079;-73
2022/04/28 01:34:28;;;;;;;7.07;3.63;;;;;;;15.89;63.28;100774.84;5071257;28;20071;-73
2022/04/28 01:36:55;;;;;;;9.57;4.33;;;;;;;15.77;63.23;100755.63;5070409;28;20080;-74
2022/04/28 01:39:22;;;;;;;7.87;4.10;;;;;;;15.85;63.64;100776.59;5069956;28;20503;-74
2022/04/28 01:41:52;;;;;;;12.27;4.43;;;;;;;15.71;63.53;100754.06;5071876;28;20044;-73
2022/04/28 01:44:19;;;;;;;13.52;5.75;;;;;;;15.86;63.61;100783.91;5067239;28;20080;-73
2022/04/28 01:46:46;;;;;;;11.40;5.13;;;;;;;15.74;63.84;100761.88;5070162;28;20052;-73
2022/04/28 01:49:13;;;;;;;12.83;5.07;;;;;;;15.82;64.02;100772.41;5069187;28;20072;-74
2022/04/28 01:57:11;;;;;;;10.18;4.78;;;;;;;15.85;63.87;100783.06;5067422;28;20483;-75
2022/04/28 01:59:37;;;;;;;12.67;5.53;;;;;;;15.63;63.70;100746.31;5069072;28;20137;-74
2022/04/28 02:02:04;;;;;;;14.17;6.07;;;;;;;15.19;64.04;100673.66;5072919;28;20120;-75
2022/04/28 02:04:32;;;;;;;17.07;5.40;;;;;;;15.75;63.75;100772.00;5067550;28;20076;-77
2022/04/28 02:06:59;;;;;;;12.80;5.77;;;;;;;15.55;63.94;100732.94;5076945;28;20048;-78
2022/04/28 02:09:26;;;;;;;21.13;6.30;;;;;;;15.67;63.89;100760.63;5071267;28;20048;-76
2022/04/28 02:11:53;;;;;;;17.50;7.33;;;;;;;15.71;63.80;100767.31;5071086;28;20052;-75
2022/04/28 02:14:20;;;;;;;13.87;5.93;;;;;;;15.73;63.96;100773.47;5071241;28;20526;-76
2022/04/28 02:16:47;;;;;;;13.53;5.57;;;;;;;15.06;63.87;100669.66;5062388;28;20098;-76
2022/04/28 02:19:14;;;;;;;17.47;5.60;;;;;;;15.05;64.09;100663.22;5067582;28;20080;-78
2022/04/28 02:21:41;;;;;;;16.37;6.40;;;;;;;15.68;64.00;100765.09;5070887;28;20091;-79
2022/04/28 02:24:08;;;;;;;15.23;6.97;;;;;;;15.69;64.44;100775.22;5069328;28;20487;-78
2022/04/28 02:26:35;;;;;;;12.60;6.07;;;;;;;15.58;64.05;100760.47;5070331;28;20487;-78
2022/04/28 02:29:02;;;;;;;15.97;6.53;;;;;;;15.37;63.97;100727.06;5069771;28;20074;-78
2022/04/28 02:31:29;;;;;;;14.33;5.77;;;;;;;15.61;63.91;100757.03;5069425;28;20491;-79
2022/04/28 02:33:56;;;;;;;11.03;5.80;;;;;;;15.60;64.12;100761.00;5068403;28;20415;-78
2022/04/28 02:36:24;;;;;;;16.50;5.63;;;;;;;15.64;64.05;100778.94;5067537;28;20060;-78
2022/04/28 02:38:52;;;;;;;16.93;5.90;;;;;;;15.63;64.25;100772.47;5070848;28;20117;-79
2022/04/28 02:41:21;;;;;;;17.37;7.40;;;;;;;15.37;64.53;100749.56;5071937;28;20568;-80
2022/04/28 02:43:49;;;;;;;9.93;5.57;;;;;;;15.47;64.56;100770.25;5070553;28;20053;-79
2022/04/28 02:46:17;;;;;;;17.17;5.87;;;;;;;15.49;64.25;100771.59;5066444;28;20436;-77
2022/04/28 02:48:45;;;;;;;16.70;6.40;;;;;;;15.19;64.47;100744.81;5067963;28;20041;-78
2022/04/28 02:51:12;;;;;;;15.50;4.87;;;;;;;15.39;64.36;100766.16;5070412;28;20049;-78
2022/04/28 02:53:39;;;;;;;13.77;5.37;;;;;;;15.16;64.57;100732.19;5072488;28;20503;-79
2022/04/28 02:56:06;;;;;;;9.57;5.07;;;;;;;15.35;64.56;100756.63;5071283;28;20526;-79
2022/04/28 02:58:34;;;;;;;13.33;6.60;;;;;;;15.34;64.36;100749.34;5074872;28;20048;-79
2022/04/28 03:01:02;;;;;;;15.60;5.80;;;;;;;15.50;64.40;100776.09;5071642;28;20070;-79
2022/04/28 03:03:30;;;;;;;17.30;5.53;;;;;;;15.45;64.16;100764.06;5073559;28;20067;-79
2022/04/28 03:11:53;;;;;;;8.87;5.10;;;;;;;15.48;63.68;100794.41;5069363;28;20075;-76
2022/04/28 03:14:21;;;;;;;16.77;6.27;;;;;;;15.10;63.52;100741.03;5073995;28;20125;-78
2022/04/28 03:16:48;;;;;;;12.50;7.30;;;;;;;15.06;63.68;100746.44;5076548;28;20048;-79
2022/04/28 03:19:15;;;;;;;19.33;7.87;;;;;;;15.36;63.89;100808.97;5074269;28;20088;-79
2022/04/28 03:21:42;;;;;;;14.77;6.07;;;;;;;15.04;64.19;100774.03;5072456;28;20080;-78
2022/04/28 03:24:10;;;;;;;13.40;5.90;;;;;;;15.25;64.68;100810.28;5073258;28;20075;-78
2022/04/28 03:26:39;;;;;;;12.30;6.67;;;;;;;15.27;64.66;100814.44;5075763;28;20494;-76
2022/04/28 03:29:06;;;;;;;13.63;6.57;;;;;;;14.93;64.53;100764.91;5072910;28;20045;-75
2022/04/28 03:31:33;;;;;;;11.07;6.07;;;;;;;15.28;64.68;100816.16;5071049;28;20071;-74
2022/04/28 03:34:00;;;;;;;16.63;6.40;;;;;;;14.96;64.29;100765.44;5074275;28;20127;-73
2022/04/28 03:39:12;;;;;;;12.47;5.80;;;;;;;15.28;64.01;100820.91;5071360;28;20118;-73
2022/04/28 03:41:40;;;;;;;16.07;6.30;;;;;;;15.16;64.20;100794.09;5073221;28;20079;-74
2022/04/28 03:44:08;;;;;;;15.83;6.57;;;;;;;14.68;64.13;100721.16;5073345;28;20123;-74
2022/04/28 03:46:36;;;;;;;13.63;7.13;;;;;;;15.38;64.28;100827.25;5065090;28;20088;-73
2022/04/28 03:49:03;;;;;;;20.20;6.53;;;;;;;15.05;64.67;100769.25;5067989;28;20041;-72
2022/04/28 03:51:30;;;;;;;22.37;6.97;;;;;;;15.41;64.78;100828.56;5064291;28;22399;-72
2022/04/28 03:54:00;;;;;;;11.00;5.90;;;;;;;15.43;64.64;100826.31;5083614;28;20557;-71
2022/04/28 03:56:31;;;;;;;15.38;6.55;;;;;;;15.40;64.64;100821.28;5081300;28;20060;-72
2022/04/28 03:58:59;;;;;;;15.15;6.18;;;;;;;15.29;64.62;100814.16;5062093;28;20086;-72
2022/04/28 04:01:26;;;;;;;14.57;7.23;;;;;;;15.38;64.41;100841.31;5067374;28;20503;-72
2022/04/28 04:03:54;;;;;;;13.63;5.87;;;;;;;14.93;64.49;100773.34;5074853;28;20103;-72
2022/04/28 04:06:21;;;;;;;14.63;6.47;;;;;;;15.35;64.65;100841.06;5073277;28;20051;-73
2022/04/28 04:08:49;;;;;;;14.70;5.57;;;;;;;15.28;64.45;100832.16;5074071;28;20083;-71
2022/04/28 04:11:16;;;;;;;12.37;5.90;;;;;;;15.26;64.75;100831.66;5057942;28;20056;-72
2022/04/28 04:13:43;;;;;;;10.53;5.33;;;;;;;15.29;64.99;100842.31;5062553;28;20160;-72
2022/04/28 04:16:11;;;;;;;17.67;6.90;;;;;;;15.28;64.74;100835.84;5071863;28;20145;-72
2022/04/28 04:18:38;;;;;;;14.40;6.57;;;;;;;15.05;64.92;100791.75;5072218;28;20052;-71
2022/04/28 04:21:06;;;;;;;13.67;6.60;;;;;;;15.38;65.06;100841.31;5066381;28;20084;-72
2022/04/28 04:23:32;;;;;;;15.83;6.03;;;;;;;15.41;65.15;100835.03;5066528;28;20044;-74
2022/04/28 04:26:01;;;;;;;10.87;5.37;;;;;;;15.39;65.49;100833.69;5070201;28;20126;-71
2022/04/28 04:28:28;;;;;;;16.90;7.60;;;;;;;15.24;65.43;100812.25;5072430;28;20048;-72
2022/04/28 04:33:41;;;;;;;12.23;5.90;;;;;;;15.23;65.11;100830.28;5067498;28;20049;-73
2022/04/28 04:36:08;;;;;;;15.93;6.87;;;;;;;15.21;65.05;100841.00;5071540;28;20048;-74
2022/04/28 04:38:35;;;;;;;11.73;5.20;;;;;;;15.20;64.92;100836.50;5070303;28;20087;-74
2022/04/28 04:41:02;;;;;;;14.33;6.30;;;;;;;15.18;64.67;100827.56;5073222;28;20531;-76
2022/04/28 04:43:29;;;;;;;13.03;5.73;;;;;;;15.24;64.72;100846.00;5071185;28;20052;-74
2022/04/28 04:45:56;;;;;;;12.83;5.73;;;;;;;14.87;64.93;100794.28;5064823;28;20082;-71
2022/04/28 04:48:24;;;;;;;14.63;5.27;;;;;;;15.03;64.41;100828.59;5069953;28;20055;-71
2022/04/28 04:50:52;;;;;;;13.67;5.57;;;;;;;15.16;64.07;100855.16;5053427;28;20080;-72
2022/04/28 04:53:19;;;;;;;11.47;5.73;;;;;;;15.16;64.32;100857.97;5060688;28;20067;-75
2022/04/28 04:55:46;;;;;;;16.73;6.40;;;;;;;15.00;64.05;100828.38;5062025;28;20049;-76
2022/04/28 04:58:13;;;;;;;15.67;6.97;;;;;;;15.06;64.04;100832.78;5067193;28;20110;-76
2022/04/28 05:00:40;;;;;;;11.73;6.23;;;;;;;15.02;64.03;100823.28;5071012;28;20045;-76
2022/04/28 05:03:07;;;;;;;13.30;6.13;;;;;;;15.17;63.89;100854.81;5069244;28;20138;-74
2022/04/28 05:05:34;;;;;;;16.53;6.73;;;;;;;15.11;63.74;100847.63;5067390;28;20446;-71
2022/04/28 05:08:03;;;;;;;18.63;7.23;;;;;;;14.66;63.73;100776.00;5042195;28;20076;-71
2022/04/28 05:10:30;;;;;;;19.00;7.17;;;;;;;14.96;63.86;100832.94;5048451;28;20569;-71
2022/04/28 05:12:57;;;;;;;14.50;7.20;;;;;;;14.73;63.68;100807.38;5046109;28;20083;-72
2022/04/28 05:15:24;;;;;;;11.40;5.50;;;;;;;15.04;64.09;100872.50;5050258;28;20053;-70
2022/04/28 05:17:51;;;;;;;12.30;5.90;;;;;;;14.65;64.23;100816.50;5045039;28;20073;-71
2022/04/28 05:20:18;;;;;;;12.13;5.60;;;;;;;14.54;64.33;100827.03;5045429;28;20049;-74
2022/04/28 05:22:44;;;;;;;13.70;6.60;;;;;;;14.79;64.59;100850.31;5049525;28;20080;-74
2022/04/28 05:25:11;;;;;;;12.23;6.37;;;;;;;14.73;64.58;100843.91;5051370;28;20053;-74
2022/04/28 05:27:38;;;;;;;15.87;6.30;;;;;;;14.41;64.34;100789.22;5050650;28;20067;-74
2022/04/28 05:30:09;;;;;;;19.17;7.40;;;;;;;14.74;64.40;100844.78;5047196;28;20090;-73
2022/04/28 05:32:36;;;;;;;14.43;7.83;;;;;;;14.75;64.24;100852.91;5047130;28;20557;-74
2022/04/28 05:35:03;;;;;;;14.00;8.17;;;;;;;14.39;64.46;100801.91;5047365;28;20079;-75
2022/04/28 05:37:30;;;;;;;12.10;7.10;;;;;;;14.55;64.33;100836.31;5052228;28;20462;-74
2022/04/28 05:39:58;;;;;;;23.70;7.70;;;;;;;14.63;64.06;100838.44;5047249;28;20084;-73
2022/04/28 05:45:41;;;;;;;15.10;6.87;;;;;;;14.64;64.43;100852.22;5043260;28;20095;-73
2022/04/28 05:47:57;;;;;;;16.33;6.23;;;;;;;14.53;64.15;100849.81;5060954;28;21050;-76
2022/04/28 05:50:26;;;;;;;15.43;7.43;;;;;;;14.30;64.23;100818.59;5049177;28;20049;-77
2022/04/28 05:52:52;;;;;;;14.03;6.90;;;;;;;14.59;64.35;100868.28;5049163;28;20532;-77
2022/04/28 05:55:19;;;;;;;14.00;7.00;;;;;;;14.58;64.40;100869.44;5048093;28;20056;-75
2022/04/28 05:57:47;;;;;;;14.87;7.03;;;;;;;14.52;64.48;100876.25;5051661;28;20516;-75
2022/04/28 06:00:14;;;;;;;17.20;7.43;;;;;;;14.57;64.86;100896.69;5044652;28;20076;-69
2022/04/28 06:02:41;;;;;;;14.77;7.83;;;;;;;14.51;64.84;100888.63;5053854;28;20566;-75
2022/04/28 06:05:09;;;;;;;23.57;10.47;;;;;;;14.51;64.83;100894.25;5040350;28;20146;-72
2022/04/28 06:07:36;;;;;;;18.10;8.33;;;;;;;14.18;64.78;100851.88;5045841;28;20073;-72
2022/04/28 06:10:03;;;;;;;16.63;8.30;;;;;;;14.54;64.74;100893.66;5048286;28;20084;-72
2022/04/28 06:12:30;;;;;;;18.73;7.20;;;;;;;14.50;64.66;100886.94;5050338;28;20088;-73
2022/04/28 06:14:57;;;;;;;20.30;9.83;;;;;;;14.55;64.36;100895.31;5048054;28;20411;-72
2022/04/28 06:17:24;;;;;;;15.33;6.83;;;;;;;14.53;64.91;100891.97;5049312;28;20041;-72
2022/04/28 06:19:51;;;;;;;15.70;6.93;;;;;;;14.72;65.14;100922.94;5046365;28;20053;-72
2022/04/28 06:22:38;;;;;;;15.43;7.07;;;;;;;14.75;64.93;100906.31;5040667;28;20052;-72
2022/04/28 06:25:07;;;;;;;17.27;8.17;;;;;;;14.58;65.25;100849.75;5049447;28;20048;-73
2022/04/28 06:27:35;;;;;;;15.60;8.00;;;;;;;15.03;65.07;100901.72;5047246;28;20045;-72
2022/04/28 06:30:04;;;;;;;13.63;7.80;;;;;;;14.81;65.13;100842.44;5046440;28;20134;-72
2022/04/28 06:32:31;;;;;;;18.17;8.67;;;;;;;15.35;64.88;100903.81;5045244;28;20077;-73
2022/04/28 06:34:58;;;;;;;15.83;8.57;;;;;;;15.49;64.78;100909.53;5048534;28;20103;-73
2022/04/28 06:37:25;;;;;;;14.47;8.20;;;;;;;15.67;64.85;100909.84;5044079;28;20052;-73
2022/04/28 06:39:52;;;;;;;14.23;7.20;;;;;;;15.91;64.46;100915.34;5051279;28;20049;-74
2022/04/28 06:42:19;;;;;;;13.90;7.77;;;;;;;15.82;64.27;100876.63;5054458;28;20112;-70
2022/04/28 06:44:46;;;;;;;12.17;7.00;;;;;;;15.73;63.87;100832.59;5049470;28;20088;-74
2022/04/28 06:47:13;;;;;;;12.55;6.93;;;;;;;16.42;63.46;100912.44;5045509;28;20472;-74
2022/04/28 06:49:40;;;;;;;11.25;6.78;;;;;;;16.80;62.98;100944.16;5049857;28;20072;-76
2022/04/28 06:52:07;;;;;;;11.73;6.55;;;;;;;17.00;62.65;100948.53;5051150;28;20069;-75
2022/04/28 06:54:34;;;;;;;15.13;6.43;;;;;;;17.17;62.41;100939.44;5047160;28;20124;-74
2022/04/28 06:57:03;;;;;;;14.85;6.95;;;;;;;16.94;61.95;100872.78;5045856;28;20520;-81
2022/04/28 06:59:30;;;;;;;12.70;6.13;;;;;;;17.59;61.63;100959.94;5053049;28;20052;-80
2022/04/28 07:01:57;;;;;;;11.50;6.28;;;;;;;17.72;61.30;100952.59;5055565;28;20053;-79
2022/04/28 07:04:24;;;;;;;10.07;6.18;;;;;;;17.58;60.68;100920.75;5054400;28;20128;-80
2022/04/28 07:06:51;;;;;;;14.32;6.22;;;;;;;17.90;60.52;100971.38;5055741;28;20057;-80
2022/04/28 07:09:19;;;;;;;13.75;8.75;;;;;;;17.94;60.40;100966.75;5055166;28;20053;-78
2022/04/28 07:11:46;;;;;;;11.52;7.82;;;;;;;18.02;60.11;100979.31;5056283;28;20053;-79
2022/04/28 07:14:13;;;;;;;17.08;6.90;;;;;;;17.72;59.85;100953.41;5054337;28;20080;-77
2022/04/28 07:16:40;;;;;;;9.60;5.75;;;;;;;17.63;59.69;100972.25;5053613;28;20514;-76
2022/04/28 07:19:07;;;;;;;9.98;6.22;;;;;;;17.79;59.74;101015.16;5053896;28;20053;-80
2022/04/28 07:21:35;;;;;;;11.10;6.88;;;;;;;17.85;59.71;101007.41;5055182;28;20049;-80
2022/04/28 07:24:02;;;;;;;11.23;5.60;;;;;;;18.15;59.49;101019.94;5056325;28;20049;-74
2022/04/28 07:26:29;;;;;;;10.45;6.88;;;;;;;18.37;58.91;101021.94;5051117;28;20458;-75
2022/04/28 07:28:55;;;;;;;15.60;7.28;;;;;;;18.09;58.32;100968.38;5052118;28;20072;-74
2022/04/28 07:31:23;;;;;;;10.40;5.55;;;;;;;18.46;58.46;101003.88;5056140;28;20102;-82
2022/04/28 07:33:50;;;;;;;10.65;5.75;;;;;;;18.46;57.86;100943.66;5056064;28;20052;-83
2022/04/28 07:36:18;;;;;;;14.32;5.32;;;;;;;19.09;57.13;100984.91;5056252;28;20083;-83
2022/04/28 07:38:45;;;;;;;10.52;5.60;;;;;;;19.71;56.82;101026.41;5055361;28;20500;-83
2022/04/28 07:41:13;;;;;;;13.90;6.53;;;;;;;19.85;55.85;101012.94;5043162;28;20094;-79
2022/04/28 07:43:41;;;;;;;13.60;7.33;;;;;;;19.89;55.82;100982.75;5044345;28;20069;-80
2022/04/28 07:46:08;;;;;;;11.20;6.00;;;;;;;20.03;55.45;100988.28;5050651;28;20085;-73
2022/04/28 07:48:35;;;;;;;10.75;6.47;;;;;;;20.12;55.02;101011.78;5055245;28;20159;-74
2022/04/28 07:51:03;;;;;;;11.93;6.50;;;;;;;20.04;54.81;101014.63;5057772;28;20560;-79
2022/04/28 07:53:33;;;;;;;10.60;5.40;;;;;;;19.85;55.09;100995.94;5059625;28;20056;-84
2022/04/28 07:56:17;;;;;;;13.25;6.88;;;;;;;19.73;55.10;100987.25;5050672;28;20055;-81
2022/04/28 07:58:44;;;;;;;14.75;7.60;;;;;;;19.35;54.85;100924.69;5053237;28;20056;-82
2022/04/28 08:01:32;;;;;;;17.52;8.55;;;;;;;19.94;54.75;100993.09;5052312;28;20052;-83
2022/04/28 08:03:59;;;;;;;12.73;7.75;;;;;;;19.99;54.65;100992.09;5046213;28;20052;-82
2022/04/28 08:06:26;;;;;;;12.25;7.05;;;;;;;20.21;54.46;101008.94;5052953;28;20136;-81
2022/04/28 08:08:53;;;;;;;14.18;8.25;;;;;;;20.33;54.39;100996.91;5047956;28;20080;-81
2022/04/28 08:11:21;;;;;;;12.55;8.07;;;;;;;20.43;54.00;101005.06;5038365;28;20412;-81
2022/04/28 08:13:49;;;;;;;14.13;8.00;;;;;;;20.39;54.17;101008.94;5047480;28;20087;-82
2022/04/28 08:16:16;;;;;;;16.05;8.15;;;;;;;20.36;54.32;101011.25;5047416;28;20488;-82
2022/04/28 08:18:43;;;;;;;15.35;8.85;;;;;;;20.25;54.26;100952.38;5051183;28;20061;-83
2022/04/28 08:21:10;;;;;;;19.85;9.13;;;;;;;20.38;53.67;100959.03;5049635;28;20053;-80
2022/04/28 08:23:37;;;;;;;13.75;8.30;;;;;;;20.47;53.56;100957.00;5044597;28;20499;-81
2022/04/28 08:26:04;;;;;;;18.02;7.97;;;;;;;20.98;53.35;100998.59;5043161;28;20142;-81
2022/04/28 08:28:31;;;;;;;15.27;9.45;;;;;;;21.10;53.18;101000.72;5051578;28;20151;-82
2022/04/28 08:30:58;;;;;;;18.00;9.40;;;;;;;21.27;52.68;100996.97;5049803;28;20065;-81
2022/04/28 08:33:25;;;;;;;22.45;11.38;;;;;;;21.43;52.53;100983.03;5049393;28;20056;-81
2022/04/28 08:35:52;;;;;;;16.58;8.88;;;;;;;21.65;52.43;100987.59;5050961;28;20073;-81
2022/04/28 08:38:19;;;;;;;17.25;9.75;;;;;;;21.71;52.32;100997.56;5058835;28;20070;-81
2022/04/28 08:40:48;;;;;;;18.58;10.93;;;;;;;22.05;51.80;100990.78;5049578;28;20099;-81
2022/04/28 08:43:16;;;;;;;15.30;9.52;;;;;;;21.40;51.45;100889.94;5050840;28;20459;-81
2022/04/28 08:48:48;;;;;;;12.25;5.25;;;;;;;22.54;50.39;100973.09;5045295;28;20045;-81
2022/04/28 08:51:17;;;;;;;8.70;5.00;;;;;;;22.37;50.58;100943.63;5050174;28;20461;-80
2022/04/28 08:53:51;;;;;;;12.55;6.30;;;;;;;22.99;50.08;100966.56;5044141;28;20053;-82
2022/04/28 08:56:20;;;;;;;7.13;4.75;;;;;;;23.34;48.89;100953.47;5052298;28;20076;-81
2022/04/28 08:58:47;;;;;;;10.53;5.30;;;;;;;23.18;48.80;100878.50;5044155;28;20091;-81
2022/04/28 09:01:15;;;;;;;10.07;4.82;;;;;;;24.10;47.60;100951.78;5044600;28;20095;-80
2022/04/28 09:03:43;;;;;;;7.00;4.20;;;;;;;24.45;46.94;100954.03;5051630;28;20051;-82
2022/04/28 09:06:34;;;;;;;13.38;5.35;;;;;;;24.59;46.45;100913.63;5052274;28;20041;-81
2022/04/28 09:09:13;;;;;;;11.25;5.03;;;;;;;24.69;45.78;100880.84;5048379;28;20052;-81
2022/04/28 09:11:43;;;;;;;7.30;4.63;;;;;;;25.31;45.24;100918.31;5051555;28;20044;-80
2022/04/28 09:14:15;;;;;;;10.85;4.53;;;;;;;25.91;44.54;100950.31;5060326;28;20124;-80
2022/04/28 09:16:45;;;;;;;9.20;4.93;;;;;;;26.22;44.03;100950.19;5057859;28;20048;-81
2022/04/28 09:19:28;;;;;;;9.25;5.50;;;;;;;26.41;43.72;100957.91;5061835;28;20071;-79
2022/04/28 09:22:08;;;;;;;11.57;6.63;;;;;;;26.67;43.04;100948.63;5050569;28;20061;-80
2022/04/28 09:24:39;;;;;;;15.55;5.07;;;;;;;26.82;42.64;100948.88;5047757;28;20509;-81
2022/04/28 09:27:08;;;;;;;10.55;4.63;;;;;;;26.48;42.26;100870.53;5039417;28;20049;-81
2022/04/28 09:29:43;;;;;;;8.80;5.22;;;;;;;27.05;42.09;100952.56;5047691;28;20515;-80
2022/04/28 09:32:13;;;;;;;7.80;4.60;;;;;;;27.05;41.58;100932.50;5044305;28;20079;-81
2022/04/28 09:35:11;;;;;;;9.10;4.60;;;;;;;27.10;41.64;100937.91;5048604;28;20045;-81
2022/04/28 09:37:38;;;;;;;8.05;4.07;;;;;;;27.46;40.54;100966.38;5047036;28;20408;-81
2022/04/28 09:42:52;;;;;;;14.30;5.10;;;;;;;27.27;40.41;100970.97;5045908;28;20171;-80
2022/04/28 09:45:22;;;;;;;6.20;4.18;;;;;;;27.39;40.37;100964.22;5045958;28;20122;-81
2022/04/28 09:48:01;;;;;;;7.80;4.70;;;;;;;27.20;40.10;100912.69;5045850;28;20064;-81
2022/04/28 09:50:29;;;;;;;6.75;4.50;;;;;;;27.63;39.72;100952.28;5044146;28;20136;-80
2022/04/28 09:53:04;;;;;;;6.45;4.57;;;;;;;27.74;39.51;100960.22;5038951;28;21243;-81
2022/04/28 09:55:32;;;;;;;8.50;4.90;;;;;;;27.78;38.97;100943.91;5043311;28;20085;-81
2022/04/28 09:57:59;;;;;;;7.55;4.13;;;;;;;28.00;38.49;100962.22;5044026;28;20114;-81
2022/04/28 10:00:26;;;;;;;7.25;3.80;;;;;;;28.03;38.22;100950.78;5047479;28;20470;-79
2022/04/28 10:02:55;;;;;;;10.75;4.30;;;;;;;28.26;38.21;100947.81;5039980;28;20135;-81
2022/04/28 10:05:25;;;;;;;;;;;;;;;28.29;39.88;100960.56;5053868;28;20159;-82
2022/04/28 10:07:53;;;;;;;8.55;4.50;;;;;;;28.36;38.05;100923.31;5053054;28;19921;-81
2022/04/28 10:10:21;;;;;;;6.60;3.55;;;;;;;28.80;37.38;100965.66;5052395;28;20080;-79
2022/04/28 10:12:49;;;;;;;7.30;3.72;;;;;;;28.97;37.06;100969.94;5057544;28;20131;-81
2022/04/28 10:15:16;;;;;;;7.00;4.00;;;;;;;28.83;36.39;100930.38;5053464;28;20193;-81
2022/04/28 10:17:50;;;;;;;12.32;5.07;;;;;;;29.35;36.42;100970.69;5056282;28;20053;-82
2022/04/28 10:20:23;;;;;;;5.72;3.63;;;;;;;29.08;36.26;100880.91;5054617;28;20052;-81
2022/04/28 10:23:12;;;;;;;5.95;3.60;;;;;;;29.85;36.09;100957.50;5046517;28;20394;-81
2022/04/28 10:34:12;;;;;;;10.73;4.32;;;;;;;29.86;35.34;100918.84;5058826;28;20045;-75
2022/04/28 10:37:04;;;;;;;5.82;2.90;;;;;;;29.36;34.99;100865.91;5055320;28;20416;-77
2022/04/28 10:39:45;;;;;;;4.50;3.03;;;;;;;29.99;34.93;100948.91;5056090;28;20049;-75
2022/04/28 10:42:20;;;;;;;7.45;3.45;;;;;;;29.98;34.21;100927.13;5048514;28;20091;-76
2022/04/28 10:44:55;;;;;;;6.40;3.15;;;;;;;29.86;34.42;100907.31;5057875;28;20049;-77
2022/04/28 10:48:27;;;;;;;8.05;3.42;;;;;;;30.12;35.05;100926.34;5054840;28;20309;-77
2022/04/28 10:51:03;;;;;;;6.60;2.95;;;;;;;30.27;34.13;100946.59;5014464;28;20409;-77
2022/04/28 10:53:31;;;;;;;8.23;3.13;;;;;;;30.01;32.99;100884.34;5056688;28;20457;-77
2022/04/28 10:56:09;;;;;;;5.22;3.03;;;;;;;30.57;33.48;100934.75;5053307;28;20542;-75
2022/04/28 10:58:36;;;;;;;6.43;2.97;;;;;;;31.13;32.10;100913.78;5059333;28;20060;-76
2022/04/28 11:01:04;;;;;;;5.20;2.90;;;;;;;31.30;31.69;100915.00;5051252;28;20496;-78
2022/04/28 11:03:50;;;;;;;6.97;2.47;;;;;;;30.89;31.98;100921.22;5052168;28;20095;-76
2022/04/28 11:06:24;;;;;;;5.22;2.70;;;;;;;30.92;31.38;100936.88;5053903;28;20048;-75
2022/04/28 11:08:55;;;;;;;6.10;3.20;;;;;;;30.35;31.10;100899.28;5054805;28;20088;-76
2022/04/28 11:11:25;;;;;;;6.55;3.30;;;;;;;30.53;31.73;100923.22;5052031;28;20076;-76
2022/04/28 11:13:57;;;;;;;4.95;2.95;;;;;;;30.67;31.81;100911.69;5056975;28;20041;-74
2022/04/28 11:16:28;;;;;;;7.78;3.22;;;;;;;30.73;32.00;100899.75;5048032;28;20041;-75
2022/04/28 11:18:55;;;;;;;5.28;2.40;;;;;;;30.95;31.48;100906.41;5050586;28;20049;-75
2022/04/28 11:21:22;;;;;;;9.48;4.18;;;;;;;30.93;31.52;100907.59;5050266;28;20048;-74
2022/04/28 11:23:51;;;;;;;4.75;3.13;;;;;;;30.88;31.26;100867.66;5052013;28;20179;-76
2022/04/28 11:26:20;;;;;;;;;;;;;;;30.87;33.10;100899.78;5050188;28;20121;-78
2022/04/28 11:28:47;;;;;;;6.00;2.45;;;;;;;31.18;31.42;100883.72;5051804;28;19920;-76
2022/04/28 11:31:18;;;;;;;4.13;2.42;;;;;;;31.68;30.20;100886.50;5050242;28;20064;-75
2022/04/28 11:33:48;;;;;;;3.83;1.60;;;;;;;31.71;29.46;100897.22;5073780;28;20067;-75
2022/04/28 11:36:25;;;;;;;2.95;1.60;;;;;;;31.47;29.40;100884.50;5069721;28;20100;-76
2022/04/28 11:38:54;;;;;;;2.95;1.80;;;;;;;31.37;29.46;100879.56;5061440;28;20049;-76
2022/04/28 11:41:31;;;;;;;3.60;1.63;;;;;;;31.15;28.95;100873.81;5067561;28;20040;-76
2022/04/28 11:44:07;;;;;;;2.83;2.10;;;;;;;31.30;29.50;100885.34;5064283;28;20056;-78
2022/04/28 11:46:37;;;;;;;3.10;2.08;;;;;;;31.29;28.96;100843.31;5054222;28;20065;-75
2022/04/28 11:49:04;;;;;;;1.90;1.52;;;;;;;31.64;28.92;100900.13;5050993;28;20053;-74
2022/04/28 11:51:45;;;;;;;3.63;2.05;;;;;;;31.37;27.93;100885.34;5053607;28;20056;-75
2022/04/28 11:54:38;;;;;;;2.45;1.70;;;;;;;31.58;28.39;100884.47;5050131;28;20558;-75
2022/04/28 11:57:12;;;;;;;5.38;1.98;;;;;;;32.03;27.79;100864.50;5046286;28;20057;-75
2022/04/28 11:59:40;;;;;;;4.45;2.20;;;;;;;32.45;26.82;100871.31;5047992;28;20084;-75
2022/04/28 12:02:31;;;;;;;3.03;1.80;;;;;;;32.65;26.97;100866.63;5050797;28;20059;-76
2022/04/28 12:05:00;;;;;;;4.30;1.88;;;;;;;33.15;25.94;100856.69;5050850;28;20049;-77